»·PEaware :: N1051M KAVX-KSAN

N1051M :: KAVX-KSAN

FLIGHT INFORMATION

Flight Status: Arrived
Operator: Privately registered:
United States
More flights under this callsign
Pilot: Shuai W. (12474)
Aircraft: CESSNA 172 SKYHAWK
(C172)
More flights by this aircraft type
Origin: KAVX Catalina
United States
Destination: KSAN San Diego Intl-Lindbergh
United States
More flights between these airports :: More routes between these airports
Route: SXC V208 OCN V23 MZB
File this flight plan on PilotEdge
Remarks:
Altitude:
(Current/Filed)
5,000ft
Speed:
(Current/Filed)
100kts
Departed: 13-Aug-19 02:43 PM
Arrived: 13-Aug-19 03:56 PM
Distance/Time
Traveled:
74nm/1:13
Distance/Time
To Go:
Arrived

Flight Plot

Page will automatically refresh every two minutes.


Map Options




Map Legend


Flown Route
Filed Route
Departure Airport
Arrival Airport
Navaid (VOR, NDB)
Fix

Horizontal Profiles

Position Reports

Time Latitude Longitude Heading Altitude Ground
Speed
13-Aug-19 14:00 33.403112 -118.415850 33 1569ft 0kts
13-Aug-19 14:00 33.403112 -118.415850 33 1569ft 0kts
13-Aug-19 14:02 33.403112 -118.415850 33 1569ft 0kts
13-Aug-19 14:03 33.403112 -118.415850 33 1569ft 0kts
13-Aug-19 14:03 33.403112 -118.415850 33 1569ft 0kts
13-Aug-19 14:04 33.403112 -118.415850 33 1569ft 0kts
13-Aug-19 14:05 33.403112 -118.415850 33 1569ft 0kts
13-Aug-19 14:06 33.403112 -118.415850 33 1569ft 0kts
13-Aug-19 14:07 33.403112 -118.415850 33 1569ft 0kts
13-Aug-19 14:08 33.403112 -118.415850 33 1569ft 0kts
13-Aug-19 14:09 33.403112 -118.415850 33 1569ft 0kts
13-Aug-19 14:10 33.403112 -118.415850 33 1569ft 0kts
13-Aug-19 14:11 33.403112 -118.415850 33 1569ft 0kts
13-Aug-19 14:12 33.403112 -118.415850 33 1569ft 0kts
13-Aug-19 14:13 33.403112 -118.415850 33 1569ft 0kts
13-Aug-19 14:14 33.403112 -118.415850 33 1569ft 0kts
13-Aug-19 14:15 33.403112 -118.415850 33 1569ft 0kts
13-Aug-19 14:16 33.403112 -118.415850 33 1569ft 0kts
13-Aug-19 14:17 33.403112 -118.415850 33 1569ft 0kts
13-Aug-19 14:18 33.403112 -118.415850 33 1569ft 0kts
13-Aug-19 14:19 33.403112 -118.415850 33 1569ft 0kts
13-Aug-19 14:20 33.403112 -118.415850 33 1569ft 0kts
13-Aug-19 14:21 33.403112 -118.415850 33 1569ft 0kts
13-Aug-19 14:22 33.403112 -118.415850 33 1569ft 0kts
13-Aug-19 14:23 33.403112 -118.415850 33 1569ft 0kts
13-Aug-19 14:24 33.403112 -118.415850 33 1569ft 0kts
13-Aug-19 14:25 33.403112 -118.415850 33 1569ft 0kts
13-Aug-19 14:26 33.403112 -118.415850 33 1569ft 0kts
13-Aug-19 14:27 33.403112 -118.415850 33 1569ft 0kts
13-Aug-19 14:28 33.403112 -118.415850 33 1569ft 0kts
13-Aug-19 14:29 33.403112 -118.415850 33 1569ft 0kts
13-Aug-19 14:30 33.403637 -118.415343 44 1569ft 3kts
13-Aug-19 14:31 33.404449 -118.415035 351 1569ft 0kts
13-Aug-19 14:32 33.404449 -118.415035 351 1569ft 0kts
13-Aug-19 14:33 33.404449 -118.415035 351 1569ft 0kts
13-Aug-19 14:34 33.404449 -118.415035 351 1569ft 0kts
13-Aug-19 14:35 33.404450 -118.415035 351 1569ft 0kts
13-Aug-19 14:36 33.405124 -118.414828 48 1569ft 2kts
13-Aug-19 14:37 33.405958 -118.413447 53 1569ft 4kts
13-Aug-19 14:38 33.407039 -118.411629 56 1569ft 1kts
13-Aug-19 14:39 33.407100 -118.411520 54 1569ft 0kts
13-Aug-19 14:40 33.407100 -118.411520 54 1569ft 0kts
13-Aug-19 14:41 33.407241 -118.411995 234 1569ft 3kts
13-Aug-19 14:42 33.398486 -118.430157 265 2131ft 81kts
13-Aug-19 14:43 33.413968 -118.421357 46 2978ft 80kts
13-Aug-19 14:44 33.425776 -118.398526 98 3753ft 86kts
13-Aug-19 14:45 33.406166 -118.397913 212 4454ft 89kts
13-Aug-19 14:46 33.385899 -118.416566 217 4999ft 100kts
13-Aug-19 14:47 33.366223 -118.411981 81 4987ft 102kts
13-Aug-19 14:48 33.370912 -118.380022 100 4988ft 101kts
13-Aug-19 14:49 33.366511 -118.346241 100 4988ft 102kts
13-Aug-19 14:50 33.362107 -118.312389 100 4989ft 104kts
13-Aug-19 14:51 33.357522 -118.277200 100 4988ft 107kts
13-Aug-19 14:52 33.352887 -118.241666 100 4988ft 108kts
13-Aug-19 14:53 33.348221 -118.206014 100 4988ft 108kts
13-Aug-19 14:54 33.343505 -118.170059 100 4988ft 108kts
13-Aug-19 14:55 33.338777 -118.134061 100 4988ft 108kts
13-Aug-19 14:56 33.334087 -118.098500 100 4988ft 108kts
13-Aug-19 14:57 33.329432 -118.063256 100 5043ft 106kts
13-Aug-19 14:58 33.324738 -118.027767 100 5042ft 108kts
13-Aug-19 14:59 33.320019 -117.992096 100 5043ft 108kts
13-Aug-19 15:00 33.315296 -117.956671 100 5043ft 108kts
13-Aug-19 15:01 33.310562 -117.921167 100 5042ft 108kts
13-Aug-19 15:02 33.305831 -117.885748 100 5042ft 108kts
13-Aug-19 15:03 33.301232 -117.850153 99 5042ft 108kts
13-Aug-19 15:04 33.297213 -117.814627 99 5042ft 108kts
13-Aug-19 15:05 33.292786 -117.779011 100 5042ft 108kts
13-Aug-19 15:06 33.288121 -117.743415 100 5042ft 108kts
13-Aug-19 15:07 33.283379 -117.707902 100 5042ft 108kts
13-Aug-19 15:08 33.278566 -117.672073 100 5042ft 108kts
13-Aug-19 15:09 33.273189 -117.636260 102 5042ft 108kts
13-Aug-19 15:10 33.267720 -117.600255 101 5042ft 108kts
13-Aug-19 15:11 33.262668 -117.564308 101 5033ft 108kts
13-Aug-19 15:12 33.257748 -117.528478 100 5033ft 108kts
13-Aug-19 15:13 33.252861 -117.492713 100 5033ft 108kts
13-Aug-19 15:14 33.247958 -117.456859 100 5033ft 108kts
13-Aug-19 15:15 33.242515 -117.421526 122 5029ft 107kts
13-Aug-19 15:16 33.216320 -117.406159 158 5033ft 106kts
13-Aug-19 15:17 33.188640 -117.393865 161 5033ft 106kts
13-Aug-19 15:18 33.160606 -117.382587 161 5033ft 106kts
13-Aug-19 15:19 33.132702 -117.370939 160 5033ft 106kts
13-Aug-19 15:20 33.104791 -117.359187 160 5029ft 106kts
13-Aug-19 15:21 33.076895 -117.347152 160 5020ft 106kts
13-Aug-19 15:22 33.048925 -117.334803 160 5010ft 107kts
13-Aug-19 15:23 33.020637 -117.322178 160 5000ft 107kts
13-Aug-19 15:24 32.992046 -117.309305 160 4990ft 107kts
13-Aug-19 15:25 32.963257 -117.297370 163 4981ft 107kts
13-Aug-19 15:26 32.934267 -117.286210 163 4978ft 107kts
13-Aug-19 15:27 32.905245 -117.274913 162 4978ft 107kts
13-Aug-19 15:28 32.876789 -117.263746 162 4979ft 107kts
13-Aug-19 15:29 32.848566 -117.252572 162 4979ft 107kts
13-Aug-19 15:30 32.827444 -117.232426 96 4980ft 110kts
13-Aug-19 15:31 32.825280 -117.195824 96 4979ft 111kts
13-Aug-19 15:32 32.823189 -117.159102 95 4979ft 111kts
13-Aug-19 15:33 32.821146 -117.122227 95 4979ft 111kts
13-Aug-19 15:34 32.819137 -117.084741 95 4984ft 111kts
13-Aug-19 15:35 32.817186 -117.047135 95 4990ft 111kts
13-Aug-19 15:36 32.815304 -117.009521 95 4995ft 110kts
13-Aug-19 15:37 32.813506 -116.971997 95 5001ft 110kts
13-Aug-19 15:38 32.811768 -116.934304 95 5006ft 110kts
13-Aug-19 15:39 32.797261 -116.905843 155 5012ft 106kts
13-Aug-19 15:40 32.769424 -116.891595 159 5013ft 105kts
13-Aug-19 15:41 32.740416 -116.877506 159 4551ft 105kts
13-Aug-19 15:42 32.711863 -116.876790 188 4036ft 97kts
13-Aug-19 15:43 32.682425 -116.882206 188 4046ft 109kts
13-Aug-19 15:44 32.659439 -116.898908 281 4042ft 112kts
13-Aug-19 15:45 32.670767 -116.934325 291 4038ft 114kts
13-Aug-19 15:46 32.679721 -116.969095 284 3614ft 97kts
13-Aug-19 15:47 32.687587 -117.001842 284 3001ft 102kts
13-Aug-19 15:48 32.694658 -117.031357 284 2715ft 89kts
13-Aug-19 15:49 32.701619 -117.059607 287 2237ft 87kts
13-Aug-19 15:50 32.707859 -117.085034 286 1938ft 80kts
13-Aug-19 15:51 32.714258 -117.110537 286 1401ft 75kts
13-Aug-19 15:52 32.719187 -117.131146 290 998ft 65kts
13-Aug-19 15:53 32.724008 -117.150185 289 690ft 67kts
13-Aug-19 15:54 32.728919 -117.170819 289 264ft 62kts
13-Aug-19 15:55 32.733079 -117.187599 300 18ft 14kts
13-Aug-19 15:56 32.734036 -117.188055 16 17ft 0kts
13-Aug-19 15:57 32.734184 -117.187512 101 18ft 7kts
13-Aug-19 15:58 32.733564 -117.184967 106 17ft 11kts
13-Aug-19 15:59 32.732537 -117.180647 106 17ft 18kts
13-Aug-19 16:00 32.732747 -117.178044 53 18ft 0kts
13-Aug-19 16:02 32.732747 -117.178044 53 18ft 0kts
13-Aug-19 16:03 32.732747 -117.178044 53 18ft 0kts
13-Aug-19 16:04 32.732747 -117.178044 53 18ft 0kts
13-Aug-19 16:05 32.732747 -117.178044 53 18ft 0kts

Navigation Log

Ident Type
Flight plan parsing failed, navigation log unavailable